Time;durP1;ratioP1;P1;durP2;ratioP2;P2;SDS_P1;SDS_P2;PMS_P1;PMS_P2;Temp;Humidity;BMP_temperature;BMP_pressure;BME280_temperature;BME280_humidity;BME280_pressure;Samples;Min_cycle;Max_cycle;Signal;HPM_P1;HPM_P2
2022/10/06 00:01:15;;;;;;;4.40;3.50;;;16.10;99.90;;;;;;5016424;28;20464;-67
2022/10/06 00:03:44;;;;;;;3.87;3.57;;;16.10;99.90;;;;;;5016762;28;20492;-67
2022/10/06 00:06:12;;;;;;;4.20;3.70;;;16.10;99.90;;;;;;5016278;28;20515;-67
2022/10/06 00:08:41;;;;;;;3.77;3.37;;;16.10;99.90;;;;;;5016571;28;20461;-67
2022/10/06 00:11:09;;;;;;;5.00;3.10;;;16.10;99.90;;;;;;5016378;28;20461;-67
2022/10/06 00:13:37;;;;;;;4.00;3.70;;;16.10;99.90;;;;;;5016145;28;20572;-66
2022/10/06 00:16:09;;;;;;;3.77;3.47;;;16.10;99.90;;;;;;5016105;28;20519;-67
2022/10/06 00:18:37;;;;;;;4.17;3.60;;;16.10;99.90;;;;;;5016010;28;20515;-67
2022/10/06 00:21:05;;;;;;;4.50;4.07;;;16.10;99.90;;;;;;5016228;28;20461;-67
2022/10/06 00:23:33;;;;;;;5.50;3.63;;;16.10;99.90;;;;;;5015880;28;20486;-67
2022/10/06 00:26:00;;;;;;;9.97;3.13;;;16.20;99.90;;;;;;5016318;28;20453;-67
2022/10/06 00:28:27;;;;;;;3.80;3.13;;;16.20;99.90;;;;;;5015855;28;20872;-67
2022/10/06 00:30:55;;;;;;;3.50;3.20;;;16.20;99.90;;;;;;5015826;28;20460;-67
2022/10/06 00:33:22;;;;;;;3.97;3.57;;;16.20;99.90;;;;;;5016007;28;20453;-66
2022/10/06 00:35:57;;;;;;;3.83;3.53;;;16.30;99.90;;;;;;5015395;28;20797;-67
2022/10/06 00:38:26;;;;;;;4.47;3.70;;;16.20;99.90;;;;;;5015934;28;20464;-67
2022/10/06 00:40:53;;;;;;;4.93;3.60;;;16.20;99.90;;;;;;5015665;28;20461;-67
2022/10/06 00:43:42;;;;;;;4.00;3.10;;;16.20;99.90;;;;;;5015755;28;20457;-66
2022/10/06 00:46:14;;;;;;;4.63;3.63;;;16.20;99.90;;;;;;5008109;28;20453;-67
2022/10/06 00:48:41;;;;;;;5.57;3.87;;;16.20;99.90;;;;;;5015679;28;20445;-67
2022/10/06 00:51:09;;;;;;;3.70;3.40;;;16.30;99.90;;;;;;5015134;28;20526;-66
2022/10/06 00:53:37;;;;;;;3.60;3.30;;;16.30;99.90;;;;;;5015634;28;20468;-66
2022/10/06 00:56:04;;;;;;;6.03;3.80;;;16.30;99.90;;;;;;5015327;28;20972;-66
2022/10/06 00:58:31;;;;;;;4.37;3.30;;;16.30;99.90;;;;;;5015454;28;20543;-66
2022/10/06 01:00:59;;;;;;;3.90;3.27;;;16.40;99.90;;;;;;5015918;28;20457;-67
2022/10/06 01:03:30;;;;;;;5.47;3.13;;;16.40;99.90;;;;;;5015342;28;20910;-66
2022/10/06 01:06:00;;;;;;;3.97;3.30;;;16.40;99.90;;;;;;5014997;28;20963;-66
2022/10/06 01:08:28;;;;;;;5.60;3.63;;;16.40;99.90;;;;;;5015092;28;20648;-67
2022/10/06 01:10:57;;;;;;;4.90;3.37;;;16.40;99.90;;;;;;5015216;28;20469;-67
2022/10/06 01:13:24;;;;;;;3.87;3.30;;;16.50;99.90;;;;;;5014735;28;20511;-67
2022/10/06 01:15:56;;;;;;;4.03;3.20;;;16.50;99.90;;;;;;5015303;28;20457;-67
2022/10/06 01:18:26;;;;;;;4.90;3.43;;;16.60;99.90;;;;;;5015321;28;20725;-67
2022/10/06 01:21:00;;;;;;;3.50;3.20;;;16.60;99.90;;;;;;5015079;28;20493;-66
2022/10/06 01:23:31;;;;;;;4.10;3.70;;;16.60;99.90;;;;;;5015037;28;20440;-66
2022/10/06 01:26:01;;;;;;;3.43;2.90;;;16.70;99.90;;;;;;5014872;28;20473;-67
2022/10/06 01:28:28;;;;;;;4.23;3.30;;;16.70;99.90;;;;;;5014605;28;20457;-67
2022/10/06 01:30:57;;;;;;;4.63;3.37;;;16.70;99.90;;;;;;5014813;28;20531;-67
2022/10/06 01:33:24;;;;;;;6.23;3.07;;;16.70;99.90;;;;;;5015643;28;20908;-66
2022/10/06 01:35:52;;;;;;;3.40;3.10;;;16.70;99.90;;;;;;5014783;28;20464;-67
2022/10/06 01:38:20;;;;;;;3.60;3.20;;;16.70;99.90;;;;;;5014848;28;20826;-67
2022/10/06 01:40:52;;;;;;;3.53;2.80;;;16.70;99.90;;;;;;5014534;28;20555;-66
2022/10/06 01:43:19;;;;;;;3.10;2.80;;;16.70;99.90;;;;;;5014954;28;20507;-66
2022/10/06 01:45:52;;;;;;;3.60;3.17;;;16.70;99.90;;;;;;5014583;28;20481;-66
2022/10/06 01:48:19;;;;;;;4.67;3.27;;;16.70;99.90;;;;;;5017636;28;20511;-66
2022/10/06 01:50:46;;;;;;;3.10;2.80;;;16.70;99.90;;;;;;5018712;28;20882;-66
2022/10/06 01:53:14;;;;;;;4.63;3.00;;;16.70;99.90;;;;;;5018568;28;20551;-66
2022/10/06 01:55:41;;;;;;;3.50;3.20;;;16.70;99.90;;;;;;5018717;28;20810;-66
2022/10/06 01:58:09;;;;;;;3.90;2.77;;;16.70;99.90;;;;;;5018799;28;20563;-66
2022/10/06 02:00:37;;;;;;;3.33;3.07;;;16.70;99.90;;;;;;5019302;28;20464;-66
2022/10/06 02:03:04;;;;;;;3.17;2.87;;;16.60;99.90;;;;;;5019043;28;20972;-66
2022/10/06 02:05:31;;;;;;;3.70;3.40;;;16.70;99.90;;;;;;5018069;28;20480;-66
2022/10/06 02:07:58;;;;;;;4.67;3.33;;;16.70;99.90;;;;;;5018480;28;20519;-66
2022/10/06 02:10:25;;;;;;;3.90;3.60;;;16.70;99.90;;;;;;5017995;28;20453;-66
2022/10/06 02:12:53;;;;;;;3.30;3.00;;;16.70;99.90;;;;;;5018372;28;20523;-66
2022/10/06 02:15:21;;;;;;;3.70;3.10;;;16.60;99.90;;;;;;5018037;28;20979;-66
2022/10/06 02:17:49;;;;;;;3.50;3.20;;;16.60;99.90;;;;;;5018436;28;20487;-66
2022/10/06 02:20:16;;;;;;;3.70;3.33;;;16.60;99.90;;;;;;5018126;28;20472;-66
2022/10/06 02:22:43;;;;;;;4.30;3.30;;;16.60;99.90;;;;;;5018211;28;20457;-66
2022/10/06 02:25:11;;;;;;;4.73;3.43;;;16.50;99.90;;;;;;5017687;28;20571;-66
2022/10/06 02:27:38;;;;;;;3.60;3.10;;;16.50;99.90;;;;;;5017862;28;20548;-66
2022/10/06 02:30:07;;;;;;;4.20;2.90;;;16.50;99.90;;;;;;5017757;28;20467;-66
2022/10/06 02:32:37;;;;;;;4.93;3.10;;;16.40;99.90;;;;;;5018033;28;20914;-66
2022/10/06 02:35:06;;;;;;;7.10;5.17;;;16.40;99.90;;;;;;5017639;28;20912;-66
2022/10/06 02:37:33;;;;;;;4.17;3.60;;;16.30;99.90;;;;;;5017830;28;20543;-66
2022/10/06 02:40:00;;;;;;;3.73;3.43;;;16.30;99.90;;;;;;5017538;28;21025;-67
2022/10/06 02:42:27;;;;;;;10.27;3.67;;;16.30;99.90;;;;;;5017440;28;20461;-66
2022/10/06 02:44:57;;;;;;;4.07;3.70;;;16.30;99.90;;;;;;5017376;28;20969;-67
2022/10/06 02:47:24;;;;;;;4.30;3.90;;;16.30;99.90;;;;;;5017211;28;20507;-67
2022/10/06 02:49:53;;;;;;;4.60;4.20;;;16.30;99.90;;;;;;5017691;28;20519;-67
2022/10/06 02:52:20;;;;;;;4.10;3.77;;;16.30;99.90;;;;;;5017244;28;20518;-67
2022/10/06 02:54:46;;;;;;;4.17;3.77;;;16.30;99.90;;;;;;5017382;28;20460;-67
2022/10/06 02:57:15;;;;;;;4.17;3.77;;;16.20;99.90;;;;;;5017897;28;20484;-67
2022/10/06 02:59:42;;;;;;;7.93;3.83;;;16.30;99.90;;;;;;5016979;28;20457;-67
2022/10/06 03:02:09;;;;;;;4.50;3.40;;;16.30;99.90;;;;;;5018236;28;20483;-67
2022/10/06 03:04:36;;;;;;;4.03;3.70;;;16.30;99.90;;;;;;5017700;28;20536;-67
2022/10/06 03:07:05;;;;;;;3.87;3.57;;;16.30;99.90;;;;;;5017694;28;20464;-66
2022/10/06 03:09:31;;;;;;;4.67;3.93;;;16.30;99.90;;;;;;5017602;28;20457;-66
2022/10/06 03:11:58;;;;;;;4.63;3.47;;;16.40;99.90;;;;;;5017246;28;20556;-66
2022/10/06 03:14:25;;;;;;;6.80;3.80;;;16.40;99.90;;;;;;5017237;28;20543;-66
2022/10/06 03:16:53;;;;;;;4.07;3.67;;;16.40;99.90;;;;;;5017371;28;20992;-66
2022/10/06 03:19:20;;;;;;;4.17;3.43;;;16.40;99.90;;;;;;5017363;28;20914;-66
2022/10/06 03:21:48;;;;;;;8.10;3.77;;;16.40;99.90;;;;;;5017811;28;20452;-67
2022/10/06 03:24:17;;;;;;;6.00;3.20;;;16.40;99.90;;;;;;5017119;28;20524;-66
2022/10/06 03:26:46;;;;;;;4.37;3.27;;;16.40;99.90;;;;;;5016807;28;20481;-67
2022/10/06 03:29:14;;;;;;;5.73;3.50;;;16.40;99.90;;;;;;5017425;28;20457;-67
2022/10/06 03:31:42;;;;;;;4.40;4.00;;;16.50;99.90;;;;;;5016843;28;20552;-67
2022/10/06 03:34:09;;;;;;;4.47;3.73;;;16.50;99.90;;;;;;5016560;28;20909;-67
2022/10/06 03:36:36;;;;;;;4.67;3.30;;;16.50;99.90;;;;;;5016461;28;20462;-67
2022/10/06 03:39:05;;;;;;;6.70;3.10;;;16.60;99.90;;;;;;5016807;28;20457;-67
2022/10/06 03:41:36;;;;;;;3.10;2.80;;;16.70;99.90;;;;;;5016459;28;20768;-67
2022/10/06 03:44:04;;;;;;;5.70;3.07;;;16.70;99.90;;;;;;5016959;28;20509;-67
2022/10/06 03:46:32;;;;;;;3.60;3.30;;;16.80;99.90;;;;;;5017441;28;20837;-66
2022/10/06 03:49:00;;;;;;;2.90;2.60;;;16.90;99.90;;;;;;5016638;28;20543;-66
2022/10/06 03:51:29;;;;;;;3.67;3.37;;;16.90;99.90;;;;;;5016226;28;20461;-66
2022/10/06 03:53:57;;;;;;;6.33;3.13;;;16.90;99.90;;;;;;5016473;28;20793;-67
2022/10/06 03:56:26;;;;;;;3.30;2.90;;;16.90;99.90;;;;;;5016142;28;20882;-67
2022/10/06 03:58:56;;;;;;;3.83;3.20;;;16.80;99.90;;;;;;5016263;28;20489;-67
2022/10/06 04:01:25;;;;;;;3.73;3.40;;;16.80;99.90;;;;;;5016195;28;20465;-67
2022/10/06 04:03:53;;;;;;;4.77;3.53;;;16.80;99.90;;;;;;5016311;28;20931;-67
2022/10/06 04:06:20;;;;;;;6.97;2.90;;;16.80;99.90;;;;;;5016480;28;20576;-67
2022/10/06 04:08:48;;;;;;;4.60;3.40;;;16.80;99.90;;;;;;5016069;28;20814;-67
2022/10/06 04:11:19;;;;;;;5.30;3.20;;;16.90;99.90;;;;;;5016370;28;20456;-67
2022/10/06 04:13:46;;;;;;;3.93;2.80;;;16.90;99.90;;;;;;5015992;28;20448;-67
2022/10/06 04:16:16;;;;;;;4.80;3.00;;;16.90;99.90;;;;;;5016068;28;20456;-67
2022/10/06 04:18:44;;;;;;;2.73;2.43;;;16.80;99.90;;;;;;5015893;28;20465;-67
2022/10/06 04:21:11;;;;;;;3.90;2.67;;;16.80;99.90;;;;;;5015905;28;20530;-67
2022/10/06 04:23:38;;;;;;;3.60;2.70;;;16.80;99.90;;;;;;5015639;28;20465;-67
2022/10/06 04:26:09;;;;;;;2.80;2.60;;;16.80;99.90;;;;;;5015813;28;20516;-67
2022/10/06 04:28:37;;;;;;;3.97;3.00;;;16.80;99.90;;;;;;5015592;28;20441;-66
2022/10/06 04:31:10;;;;;;;2.53;2.20;;;16.70;99.90;;;;;;5015714;28;20468;-67
2022/10/06 04:33:38;;;;;;;2.83;2.03;;;16.70;99.90;;;;;;5015804;28;20536;-67
2022/10/06 04:36:07;;;;;;;2.20;1.40;;;16.70;99.90;;;;;;5015863;28;20544;-67
2022/10/06 04:38:35;;;;;;;3.37;1.43;;;16.70;99.90;;;;;;5015441;28;20906;-67
2022/10/06 04:41:07;;;;;;;3.00;1.50;;;16.70;99.90;;;;;;5015685;28;20486;-67
2022/10/06 04:43:34;;;;;;;1.40;1.10;;;16.70;99.90;;;;;;5015524;28;20519;-67
2022/10/06 04:46:02;;;;;;;1.63;1.00;;;16.80;99.90;;;;;;5016019;28;20534;-67
2022/10/06 04:48:30;;;;;;;1.33;1.00;;;16.80;99.90;;;;;;5015388;28;20518;-67
2022/10/06 04:51:00;;;;;;;3.40;2.30;;;16.80;99.90;;;;;;5015166;28;20522;-66
2022/10/06 04:53:28;;;;;;;4.40;1.40;;;16.80;99.90;;;;;;5015635;28;20771;-66
2022/10/06 04:55:59;;;;;;;1.70;1.13;;;16.80;99.90;;;;;;5015215;28;20876;-67
2022/10/06 04:58:27;;;;;;;2.53;1.03;;;16.80;99.90;;;;;;5015723;28;20842;-66
2022/10/06 05:00:54;;;;;;;2.70;1.43;;;16.70;99.90;;;;;;5015287;28;20487;-67
2022/10/06 05:03:21;;;;;;;1.40;1.10;;;16.70;99.90;;;;;;5015275;28;20781;-66
2022/10/06 05:05:48;;;;;;;1.87;1.00;;;16.70;99.90;;;;;;5015228;28;20476;-66
2022/10/06 05:08:16;;;;;;;1.83;1.00;;;16.60;99.90;;;;;;5015228;28;20468;-67
2022/10/06 05:10:43;;;;;;;2.67;1.00;;;16.60;99.90;;;;;;5014831;28;20526;-68
2022/10/06 05:13:11;;;;;;;1.97;1.00;;;16.60;99.90;;;;;;5014906;28;20503;-66
2022/10/06 05:15:38;;;;;;;2.13;0.80;;;16.60;99.90;;;;;;5014956;28;20465;-66
2022/10/06 05:18:05;;;;;;;1.77;1.00;;;16.50;99.90;;;;;;5015105;28;20465;-65
2022/10/06 05:20:32;;;;;;;2.77;0.87;;;16.50;99.90;;;;;;5015166;28;20762;-68
2022/10/06 05:22:59;;;;;;;1.50;0.83;;;16.50;99.90;;;;;;5014613;28;20555;-66
2022/10/06 05:25:27;;;;;;;1.10;0.83;;;16.50;99.90;;;;;;5015305;28;20539;-67
2022/10/06 05:27:54;;;;;;;1.40;0.80;;;16.40;99.90;;;;;;5014864;28;20960;-66
2022/10/06 05:30:21;;;;;;;1.50;0.87;;;16.40;99.90;;;;;;5015147;28;20511;-67
2022/10/06 05:32:49;;;;;;;1.60;0.90;;;16.40;99.90;;;;;;5014808;28;20465;-67
2022/10/06 05:35:18;;;;;;;1.40;0.90;;;16.40;99.90;;;;;;5014479;28;20456;-66
2022/10/06 05:37:45;;;;;;;2.33;0.87;;;16.30;99.90;;;;;;5014736;28;20457;-67
2022/10/06 05:40:12;;;;;;;2.20;0.70;;;16.30;99.90;;;;;;5015353;28;20882;-67
2022/10/06 05:42:41;;;;;;;2.23;0.90;;;16.30;99.90;;;;;;5015161;28;20461;-67
2022/10/06 05:45:09;;;;;;;3.47;0.80;;;16.30;99.90;;;;;;5014980;28;20457;-67
2022/10/06 05:47:36;;;;;;;3.30;0.80;;;16.20;99.90;;;;;;5014540;28;20848;-67
2022/10/06 05:50:03;;;;;;;3.93;1.00;;;16.20;99.90;;;;;;5014182;28;20527;-67
2022/10/06 05:52:30;;;;;;;1.60;0.90;;;16.10;99.90;;;;;;5014218;28;20468;-67
2022/10/06 05:54:57;;;;;;;2.77;0.80;;;16.10;99.90;;;;;;5014282;28;20574;-67
2022/10/06 05:57:24;;;;;;;2.27;0.90;;;16.00;99.90;;;;;;5014208;28;20960;-67
2022/10/06 05:59:52;;;;;;;2.57;1.07;;;16.00;99.90;;;;;;5015302;28;20489;-67
2022/10/06 06:02:19;;;;;;;1.20;0.80;;;15.90;99.90;;;;;;5014271;28;20540;-67
2022/10/06 06:04:46;;;;;;;1.50;0.80;;;15.90;99.90;;;;;;5014989;28;20457;-67
2022/10/06 06:07:13;;;;;;;1.20;0.87;;;15.80;99.90;;;;;;5014234;28;20512;-67
2022/10/06 06:09:39;;;;;;;3.97;0.87;;;15.80;99.90;;;;;;5014305;28;20461;-67
2022/10/06 06:12:06;;;;;;;1.30;0.70;;;15.70;99.90;;;;;;5014333;28;20543;-66
2022/10/06 06:17:19;;;;;;;2.00;0.90;;;15.60;99.90;;;;;;5014641;28;20428;-65
2022/10/06 06:19:46;;;;;;;2.67;0.90;;;15.60;99.90;;;;;;5014575;28;20540;-66
2022/10/06 06:22:13;;;;;;;2.03;1.00;;;15.50;99.90;;;;;;5014345;28;20488;-67
2022/10/06 06:24:40;;;;;;;1.40;0.80;;;15.60;99.90;;;;;;5014087;28;20461;-68
2022/10/06 06:27:09;;;;;;;1.83;0.90;;;15.50;99.90;;;;;;5014401;28;20584;-66
2022/10/06 06:29:36;;;;;;;2.80;1.03;;;15.50;99.90;;;;;;5014209;28;20519;-66
2022/10/06 06:32:03;;;;;;;1.57;0.80;;;15.50;99.90;;;;;;5014236;28;20762;-67
2022/10/06 06:34:31;;;;;;;2.33;1.13;;;15.50;99.90;;;;;;5015793;28;20556;-66
2022/10/06 06:36:58;;;;;;;2.37;0.90;;;15.40;99.90;;;;;;5017548;28;20510;-66
2022/10/06 06:39:25;;;;;;;2.03;0.90;;;15.40;99.90;;;;;;5017529;28;20514;-66
2022/10/06 06:41:52;;;;;;;1.93;0.80;;;15.40;99.90;;;;;;5017851;28;20548;-67
2022/10/06 06:44:19;;;;;;;1.50;0.70;;;15.40;99.90;;;;;;5017418;28;20456;-66
2022/10/06 06:46:48;;;;;;;2.87;0.90;;;15.40;99.90;;;;;;5017085;28;20961;-66
2022/10/06 06:49:15;;;;;;;5.73;0.80;;;15.30;99.90;;;;;;5017196;28;20472;-66
2022/10/06 06:51:48;;;;;;;3.10;1.03;;;15.30;99.90;;;;;;5017262;28;20515;-66
2022/10/06 06:54:17;;;;;;;1.50;0.80;;;15.30;99.90;;;;;;5017155;28;20451;-66
2022/10/06 06:56:44;;;;;;;1.40;0.90;;;15.30;99.90;;;;;;5017037;28;20512;-66
2022/10/06 06:59:13;;;;;;;1.97;1.10;;;15.30;99.90;;;;;;5017105;28;20556;-66
2022/10/06 07:01:44;;;;;;;2.97;0.83;;;15.40;99.90;;;;;;5017004;28;20515;-66
2022/10/06 07:04:12;;;;;;;1.73;0.87;;;15.40;99.90;;;;;;5016910;28;20972;-66
2022/10/06 07:06:40;;;;;;;7.43;1.40;;;15.30;99.90;;;;;;5017237;28;20481;-66
2022/10/06 07:09:09;;;;;;;5.00;1.10;;;15.30;99.90;;;;;;5017116;28;20523;-66
2022/10/06 07:11:38;;;;;;;3.23;1.10;;;15.30;99.90;;;;;;5016923;28;20456;-67
2022/10/06 07:14:06;;;;;;;3.47;1.07;;;15.30;99.90;;;;;;5016730;28;20466;-68
2022/10/06 07:25:10;;;;;;;2.90;1.13;;;15.30;99.90;;;;;;5017299;28;20452;-65
2022/10/06 07:27:41;;;;;;;6.70;1.13;;;15.30;99.90;;;;;;5017566;28;20468;-66
2022/10/06 07:30:10;;;;;;;2.03;0.97;;;15.30;99.90;;;;;;5017305;28;20445;-67
2022/10/06 07:32:37;;;;;;;5.43;0.90;;;15.30;99.90;;;;;;5016842;28;20457;-68
2022/10/06 07:35:05;;;;;;;1.40;0.80;;;15.30;99.90;;;;;;5016593;28;20457;-67
2022/10/06 07:37:35;;;;;;;4.30;1.40;;;15.40;99.90;;;;;;5016450;28;20463;-67
2022/10/06 07:40:06;;;;;;;3.57;1.20;;;15.40;99.90;;;;;;5016761;28;20489;-66
2022/10/06 07:42:46;;;;;;;4.00;1.20;;;15.40;99.90;;;;;;5016090;28;20468;-66
2022/10/06 07:48:03;;;;;;;1.80;1.00;;;15.50;99.90;;;;;;5016490;28;20829;-67
2022/10/06 07:50:30;;;;;;;2.30;1.30;;;15.50;99.90;;;;;;5016239;28;20518;-67
2022/10/06 07:53:03;;;;;;;4.17;1.20;;;15.50;99.90;;;;;;5016024;28;20457;-67
2022/10/06 07:55:32;;;;;;;3.20;1.17;;;15.60;99.90;;;;;;5015949;28;20528;-67
2022/10/06 07:57:59;;;;;;;2.33;1.53;;;15.60;99.90;;;;;;5016322;28;20493;-67
2022/10/06 08:00:25;;;;;;;3.50;1.37;;;15.60;99.90;;;;;;5016104;28;20457;-68
2022/10/06 08:02:53;;;;;;;2.40;1.10;;;15.50;99.90;;;;;;5015731;28;20475;-69
2022/10/06 08:05:20;;;;;;;3.30;1.20;;;15.60;99.90;;;;;;5016480;28;20457;-66
2022/10/06 08:07:47;;;;;;;3.57;1.30;;;15.50;99.90;;;;;;5016378;28;20532;-67
2022/10/06 08:10:17;;;;;;;2.37;1.00;;;15.60;99.90;;;;;;5016233;28;20873;-68
2022/10/06 08:12:45;;;;;;;2.33;1.10;;;15.60;99.90;;;;;;5015976;28;20481;-66
2022/10/06 08:15:13;;;;;;;3.90;1.30;;;15.70;99.90;;;;;;5015810;28;20457;-67
2022/10/06 08:17:41;;;;;;;2.23;0.97;;;15.70;99.90;;;;;;5016532;28;20785;-67
2022/10/06 08:20:10;;;;;;;2.70;1.13;;;15.50;99.90;;;;;;5016041;28;20515;-67
2022/10/06 08:22:38;;;;;;;4.37;1.20;;;15.50;99.90;;;;;;5016025;28;20460;-66
2022/10/06 08:25:07;;;;;;;1.50;1.00;;;15.50;99.90;;;;;;5016208;28;20460;-67
2022/10/06 08:27:35;;;;;;;3.87;1.80;;;15.40;99.90;;;;;;5016488;28;20785;-67
2022/10/06 08:30:06;;;;;;;6.60;1.20;;;15.50;99.90;;;;;;5015762;28;20836;-67
2022/10/06 08:32:33;;;;;;;3.63;1.20;;;15.60;99.90;;;;;;5015711;28;20541;-67
2022/10/06 08:35:00;;;;;;;2.97;0.90;;;15.70;99.90;;;;;;5016209;28;20967;-68
2022/10/06 08:37:27;;;;;;;5.53;1.10;;;15.80;99.90;;;;;;5015522;28;20840;-68
2022/10/06 08:39:55;;;;;;;10.03;1.03;;;15.90;99.90;;;;;;5015256;28;20543;-67
2022/10/06 08:42:29;;;;;;;5.00;1.00;;;15.90;99.90;;;;;;5015255;28;20453;-68
2022/10/06 08:44:59;;;;;;;3.50;1.20;;;16.00;99.90;;;;;;5015271;28;20898;-67
2022/10/06 08:47:32;;;;;;;8.23;1.60;;;16.10;99.90;;;;;;5015712;28;20481;-67
2022/10/06 08:49:59;;;;;;;4.73;1.40;;;16.00;99.90;;;;;;5015364;28;20521;-67
2022/10/06 08:52:48;;;;;;;2.00;1.20;;;16.10;99.90;;;;;;5014874;28;20461;-67
2022/10/06 08:55:31;;;;;;;4.03;1.33;;;16.20;99.90;;;;;;5015476;28;20536;-71
2022/10/06 08:58:30;;;;;;;2.73;1.10;;;16.30;99.90;;;;;;5014864;28;20437;-67
2022/10/06 09:01:02;;;;;;;10.10;1.53;;;16.20;99.90;;;;;;4998966;28;20852;-67
2022/10/06 09:03:31;;;;;;;5.07;1.50;;;16.20;99.90;;;;;;5014402;28;20476;-66
2022/10/06 09:06:06;;;;;;;2.40;1.23;;;16.20;99.90;;;;;;5014361;28;20457;-67
2022/10/06 09:08:42;;;;;;;4.50;1.47;;;16.20;99.90;;;;;;5015261;28;20441;-67
2022/10/06 09:11:28;;;;;;;6.70;1.30;;;16.20;99.90;;;;;;5014851;28;20901;-67
2022/10/06 09:14:01;;;;;;;4.00;1.00;;;16.20;99.90;;;;;;5015065;28;20445;-67
2022/10/06 09:16:32;;;;;;;7.50;1.50;;;16.20;99.90;;;;;;5015538;28;20441;-67
2022/10/06 09:19:11;;;;;;;4.40;1.23;;;16.10;99.90;;;;;;5015621;28;20425;-66
2022/10/06 09:21:42;;;;;;;2.87;1.30;;;16.00;99.90;;;;;;5015796;28;20445;-67
2022/10/06 09:24:15;;;;;;;4.20;1.37;;;16.00;99.90;;;;;;5015781;28;20511;-66
2022/10/06 09:26:44;;;;;;;5.70;1.47;;;15.90;99.90;;;;;;5015100;28;20552;-67
2022/10/06 09:29:12;;;;;;;4.73;1.60;;;15.90;99.90;;;;;;5015107;28;20566;-67
2022/10/06 09:31:42;;;;;;;7.87;1.37;;;15.90;99.90;;;;;;5014661;28;20460;-66
2022/10/06 09:34:21;;;;;;;3.27;1.70;;;16.00;99.90;;;;;;5014973;28;20545;-67
2022/10/06 09:37:01;;;;;;;3.43;1.27;;;16.00;99.90;;;;;;5014708;28;20548;-67
2022/10/06 09:39:32;;;;;;;8.87;1.80;;;16.00;99.90;;;;;;5014439;28;20881;-67
2022/10/06 09:42:02;;;;;;;4.63;1.50;;;16.00;99.90;;;;;;5015546;28;20456;-68
2022/10/06 09:44:32;;;;;;;9.33;1.23;;;16.00;99.90;;;;;;5014819;28;20451;-67
2022/10/06 09:46:59;;;;;;;11.30;1.30;;;16.10;99.90;;;;;;5014280;28;20493;-67
2022/10/06 09:49:30;;;;;;;5.33;1.23;;;16.20;99.90;;;;;;5014198;28;20998;-65
2022/10/06 09:52:03;;;;;;;4.60;1.23;;;16.30;99.90;;;;;;5014604;28;20483;-67
2022/10/06 09:54:33;;;;;;;4.83;1.57;;;16.50;99.90;;;;;;5014639;28;20910;-66
2022/10/06 09:57:09;;;;;;;4.57;2.10;;;16.60;99.90;;;;;;5014501;28;20441;-66
2022/10/06 09:59:40;;;;;;;4.80;1.33;;;16.60;99.90;;;;;;5014260;28;20472;-66
2022/10/06 10:02:28;;;;;;;11.83;1.53;;;16.60;99.90;;;;;;5014334;28;20966;-67
2022/10/06 10:04:57;;;;;;;7.60;1.90;;;16.60;99.90;;;;;;5014526;28;20511;-67
2022/10/06 10:07:26;;;;;;;8.23;1.30;;;16.70;99.90;;;;;;5014062;28;20542;-67
2022/10/06 10:10:08;;;;;;;7.50;1.53;;;16.80;99.90;;;;;;5018019;28;20519;-66
2022/10/06 10:12:35;;;;;;;4.93;1.43;;;16.90;99.90;;;;;;5017889;28;20441;-66
2022/10/06 10:15:23;;;;;;;5.80;1.20;;;16.80;99.90;;;;;;5018077;28;20469;-66
2022/10/06 10:17:51;;;;;;;2.13;1.30;;;16.80;99.90;;;;;;5018621;28;20437;-66
2022/10/06 10:20:34;;;;;;;6.13;1.60;;;16.80;99.90;;;;;;5017826;28;20503;-66
2022/10/06 10:23:03;;;;;;;5.80;1.43;;;16.80;99.90;;;;;;5018158;28;20558;-66
2022/10/06 10:25:47;;;;;;;3.83;1.13;;;16.70;99.90;;;;;;5018224;28;20489;-65
2022/10/06 10:28:32;;;;;;;5.23;1.20;;;16.80;99.90;;;;;;5018790;28;20852;-65
2022/10/06 10:31:04;;;;;;;7.83;1.77;;;16.90;99.90;;;;;;5017993;28;20453;-67
2022/10/06 10:33:40;;;;;;;2.50;1.10;;;17.00;99.90;;;;;;5018215;28;20445;-66
2022/10/06 10:36:11;;;;;;;2.50;1.00;;;17.10;99.90;;;;;;5017824;28;20546;-67
2022/10/06 10:38:41;;;;;;;7.03;1.50;;;17.10;99.90;;;;;;5017961;28;20480;-66
2022/10/06 10:41:13;;;;;;;4.13;1.37;;;17.00;99.90;;;;;;5017546;28;20460;-66
2022/10/06 10:43:48;;;;;;;5.17;1.87;;;17.00;99.90;;;;;;5017846;28;20834;-66
2022/10/06 10:46:21;;;;;;;3.30;1.17;;;17.10;99.90;;;;;;5017820;28;20495;-67
2022/10/06 10:48:54;;;;;;;4.50;1.10;;;17.30;99.90;;;;;;5017507;28;20840;-67
2022/10/06 10:51:26;;;;;;;4.43;1.73;;;17.40;99.90;;;;;;5017523;28;20448;-66
2022/10/06 10:53:59;;;;;;;2.63;1.20;;;17.40;99.90;;;;;;5017482;28;20467;-67
2022/10/06 10:56:27;;;;;;;5.27;1.30;;;17.60;99.90;;;;;;5017027;28;20484;-66
2022/10/06 10:58:56;;;;;;;4.63;1.27;;;17.60;99.90;;;;;;5017311;28;20465;-66
2022/10/06 11:01:31;;;;;;;7.83;1.20;;;17.70;99.90;;;;;;5017430;28;20468;-66
2022/10/06 11:03:59;;;;;;;3.40;1.47;;;17.70;99.90;;;;;;5017862;28;20444;-66
2022/10/06 11:06:50;;;;;;;2.90;1.07;;;17.70;99.90;;;;;;5017324;28;20978;-66
2022/10/06 11:09:18;;;;;;;5.90;1.23;;;17.80;99.90;;;;;;5007986;28;20556;-67
2022/10/06 11:11:58;;;;;;;2.90;1.30;;;17.90;99.90;;;;;;5016672;28;20456;-67
2022/10/06 11:14:36;;;;;;;7.73;2.10;;;18.10;99.90;;;;;;5016997;28;20511;-66
2022/10/06 11:17:11;;;;;;;6.90;1.20;;;18.00;99.90;;;;;;5016629;28;20472;-66
2022/10/06 11:19:48;;;;;;;5.63;2.17;;;18.00;99.90;;;;;;5015964;28;20472;-66
2022/10/06 11:22:24;;;;;;;4.37;1.27;;;17.90;99.90;;;;;;5016984;28;20488;-67
2022/10/06 11:25:00;;;;;;;5.17;1.50;;;17.80;99.90;;;;;;5016849;28;20440;-67
2022/10/06 11:27:42;;;;;;;4.63;1.23;;;17.70;99.90;;;;;;5016398;28;20941;-67
2022/10/06 11:30:15;;;;;;;2.93;1.40;;;17.70;99.90;;;;;;5016779;28;20441;-67
2022/10/06 11:32:54;;;;;;;3.20;1.20;;;17.70;99.90;;;;;;5016730;28;20475;-67
2022/10/06 11:35:24;;;;;;;5.83;1.30;;;17.70;99.90;;;;;;5016862;28;20454;-67
2022/10/06 11:37:59;;;;;;;4.10;1.30;;;17.90;99.90;;;;;;5016621;28;20464;-66
2022/10/06 11:40:40;;;;;;;2.43;1.10;;;18.00;99.90;;;;;;5016822;28;20440;-67
2022/10/06 11:43:16;;;;;;;4.33;1.50;;;18.10;99.90;;;;;;5016465;28;20448;-68
2022/10/06 11:45:50;;;;;;;5.10;1.63;;;18.20;99.90;;;;;;5016631;28;20449;-66
2022/10/06 11:48:25;;;;;;;5.10;1.90;;;18.20;99.90;;;;;;5016043;28;20471;-66
2022/10/06 11:50:55;;;;;;;2.23;1.10;;;18.50;99.90;;;;;;5016250;28;20556;-67
2022/10/06 11:53:41;;;;;;;4.67;1.10;;;19.30;99.90;;;;;;5016146;28;20457;-66
2022/10/06 11:56:41;;;;;;;3.47;1.03;;;20.00;99.90;;;;;;5015874;28;20484;-67
2022/10/06 11:59:30;;;;;;;4.70;1.20;;;20.50;99.90;;;;;;5016052;28;20524;-67
2022/10/06 12:02:01;;;;;;;6.00;1.20;;;20.90;99.90;;;;;;5016174;28;20796;-67
2022/10/06 12:04:28;;;;;;;4.93;1.37;;;21.30;99.90;;;;;;5015572;28;20551;-67
2022/10/06 12:07:13;;;;;;;5.33;1.40;;;21.30;99.90;;;;;;5015876;28;20975;-67
2022/10/06 12:09:50;;;;;;;4.53;1.60;;;21.20;99.90;;;;;;5015550;28;20434;-67
2022/10/06 12:12:55;;;;;;;3.80;1.27;;;21.00;98.40;;;;;;5015323;28;20949;-67
2022/10/06 12:15:59;;;;;;;4.20;1.17;;;21.60;97.70;;;;;;4955428;29;20479;-67
2022/10/06 12:18:35;;;;;;;6.83;1.50;;;22.10;95.40;;;;;;4932084;29;20456;-67
2022/10/06 12:21:23;;;;;;;5.77;1.43;;;22.10;94.40;;;;;;5002970;28;20507;-67
2022/10/06 12:24:03;;;;;;;6.10;1.57;;;21.80;94.40;;;;;;4999519;28;20560;-66
2022/10/06 12:26:41;;;;;;;3.80;1.53;;;21.30;94.90;;;;;;5015837;28;20441;-67
2022/10/06 12:29:38;;;;;;;5.07;1.47;;;21.40;94.70;;;;;;5015694;28;20465;-67
2022/10/06 12:32:33;;;;;;;5.10;1.37;;;21.50;93.60;;;;;;5014319;28;20492;-67
2022/10/06 12:35:16;;;;;;;7.20;1.57;;;21.40;93.00;;;;;;5015495;28;20938;-66
2022/10/06 12:37:45;;;;;;;4.80;1.47;;;22.00;93.50;;;;;;5015554;28;20925;-66
2022/10/06 12:40:53;;;;;;;4.70;1.20;;;22.70;90.30;;;;;;5015491;28;20476;-67
2022/10/06 12:43:56;;;;;;;3.20;1.33;;;22.30;88.10;;;;;;5011083;28;20480;-67
2022/10/06 12:46:39;;;;;;;4.27;1.23;;;21.20;86.40;;;;;;5015603;28;20449;-68
2022/10/06 12:49:43;;;;;;;5.40;1.40;;;21.10;88.00;;;;;;5015501;28;20819;-66
2022/10/06 12:52:30;;;;;;;6.80;1.10;;;21.20;86.20;;;;;;5005524;28;20837;-66
2022/10/06 12:55:10;;;;;;;3.57;1.30;;;21.20;85.80;;;;;;5011859;28;20485;-67
2022/10/06 12:57:46;;;;;;;2.63;0.93;;;21.00;83.10;;;;;;5015530;28;20536;-66
2022/10/06 13:00:24;;;;;;;1.93;0.90;;;21.20;82.60;;;;;;5015528;28;20472;-68
2022/10/06 13:02:56;;;;;;;3.43;0.93;;;21.90;81.00;;;;;;5016300;28;20885;-67
2022/10/06 13:05:24;;;;;;;4.13;1.20;;;22.50;80.00;;;;;;5015559;28;20457;-67
2022/10/06 13:07:58;;;;;;;4.70;1.70;;;23.20;77.50;;;;;;5015244;28;20519;-67
2022/10/06 13:10:26;;;;;;;3.20;1.30;;;23.50;73.30;;;;;;5015221;28;20530;-67
2022/10/06 13:12:56;;;;;;;2.90;1.20;;;23.70;73.00;;;;;;5014460;28;20496;-66
2022/10/06 13:15:29;;;;;;;3.00;1.20;;;23.90;71.60;;;;;;5014514;28;20897;-66
2022/10/06 13:17:58;;;;;;;3.43;1.03;;;23.70;71.10;;;;;;5014586;28;20441;-67
2022/10/06 13:20:40;;;;;;;2.97;1.40;;;24.10;68.80;;;;;;5014841;28;20467;-67